Nearby METAR Reports

 

KDWH - Houston/Dw Hooks, Texas, USA
Distance from station: WNW 3mi, 6km
Updated: 07/19/2024 2:53am
Few Clouds
Few Clouds
 Wind from calm
Wind: Calm
Temperature: 75°F, 24°C
Dew Point: 73°F, 23°C
Humidity: 94%
Barometer: 30.00 inHg, 1015.9 hPa
Clouds: Few Clouds
Visibility: 10 miles, 16 km
Cloud details: Few Clouds 6000 ft
2024/07/19 07:53 KDWH 190753Z AUTO 00000KT 10SM FEW060 24/23 A3000 RMK AO2 SLP155 T02440233
KIAH - Houston/Intnl, Texas, USA
Distance from station: ESE 9mi, 14km
Updated: 07/19/2024 2:53am
Partly cloudy
Partly cloudy
 Wind from calm
Wind: Calm
Temperature: 79°F, 26°C
Dew Point: 73°F, 23°C
Humidity: 84%
Barometer: 29.99 inHg, 1015.6 hPa
Clouds: Partly cloudy
Visibility: 10 miles, 16 km
Cloud details: Few Clouds 4000 ft
Partly cloudy 25000 ft
2024/07/19 07:53 KIAH 190753Z 00000KT 10SM FEW040 SCT250 26/23 A2999 RMK AO2 SLP154 T02560228
 
KCXO - Conroe, Texas, USA
Distance from station: NNE 21mi, 34km
Updated: 07/19/2024 2:53am
Overcast
Overcast
 Wind from NW
Wind: NW 5 mph, 7 km/h
Temperature: 77°F, 25°C
Dew Point: 75°F, 24°C
Humidity: 94%
Barometer: 30.01 inHg, 1016.3 hPa
Clouds: Overcast
Visibility: 10 miles, 16 km
Cloud details: Mostly cloudy 3300 ft
Overcast 6000 ft
2024/07/19 07:53 KCXO 190753Z AUTO 32004KT 10SM BKN033 OVC060 25/24 A3001 RMK AO2 SLP158 T02500239
KMCJ - Houston/Univ, Texas, USA
Distance from station: SSE 24mi, 39km
Updated: 07/08/2024 4:55pm
NOT Current
Mostly cloudy
Mostly cloudy
 Wind from WNW
Wind: WNW 13 mph, 20 km/h, Gust: 28 mph, 44 km/h
Temperature: 82°F, 28°C
Heat Index: 86°F, 30°C
Dew Point: 72°F, 22°C
Humidity: 70%
Barometer: 29.77 inHg, 1008.1 hPa
Clouds: Mostly cloudy
Cloud details: Mostly cloudy 3300 ft
Mostly cloudy 4200 ft
2024/07/08 21:55 KMCJ 082155Z AUTO 29011G24KT 260V320 BKN033 BKN042 28/22 A2977 RMK A01
 
KTME - Houston Exec, Texas, USA
Distance from station: SW 30mi, 48km
Updated: 07/19/2024 3:15am
Overcast
Overcast
 Wind from S
Wind: S 5 mph, 7 km/h
Temperature: 79°F, 26°C
Dew Point: 77°F, 25°C
Humidity: 94%
Barometer: 30.01 inHg, 1016.3 hPa
Clouds: Overcast
Visibility: 10 miles, 16 km
Cloud details: Mostly cloudy 5000 ft
Overcast 5500 ft
2024/07/19 08:15 KTME 190815Z AUTO 19004KT 10SM BKN050 OVC055 26/25 A3001 RMK AO2
KHOU - Houston/Hobby, Texas, USA
Distance from station: SSE 32mi, 51km
Updated: 07/19/2024 2:53am
Partly cloudy
Partly cloudy
 Wind from SSW
Wind: SSW 5 mph, 7 km/h
Temperature: 79°F, 26°C
Dew Point: 73°F, 23°C
Humidity: 84%
Barometer: 29.98 inHg, 1015.2 hPa
Clouds: Partly cloudy
Visibility: 10 miles, 16 km
Cloud details: Few Clouds 2500 ft
Partly cloudy 30000 ft
2024/07/19 07:53 KHOU 190753Z 20004KT 10SM FEW025 SCT300 26/23 A2998 RMK AO2 SLP157 T02560233 $
 
KSGR - Houston/Sugar La, Texas, USA
Distance from station: SSW 32mi, 51km
Updated: 07/19/2024 2:53am
Clear
Clear
 Wind from calm
Wind: Calm
Temperature: 79°F, 26°C
Dew Point: 75°F, 24°C
Humidity: 89%
Barometer: 29.99 inHg, 1015.6 hPa
Clouds: Clear
Visibility: 10 miles, 16 km
2024/07/19 07:53 KSGR 190753Z AUTO 00000KT 10SM CLR 26/24 A2999 RMK AO2 SLP155 T02560244 $
K6R3 - Cleveland Muni, Texas, USA
Distance from station: NE 36mi, 58km
Updated: 07/19/2024 3:15am
Overcast
Overcast
 Wind from calm
Wind: Calm
Temperature: 79°F, 26°C
Dew Point: 75°F, 24°C
Humidity: 89%
Barometer: 30.00 inHg, 1015.9 hPa
Clouds: Overcast
Visibility: 10 miles, 16 km
Cloud details: Mostly cloudy 3600 ft
Overcast 4200 ft
2024/07/19 08:15 K6R3 190815Z AUTO 00000KT 10SM BKN036 OVC042 26/24 A3000 RMK AO2 T02550242
 
KAXH - Houston/Southwst, Texas, USA
Distance from station: S 37mi, 60km
Updated: 07/08/2024 5:35am
NOT Current
Heavy rain
Heavy rain
 Wind from E
Wind: E 31 mph, 50 km/h, Gust: 45 mph, 72 km/h
Temperature: 77°F, 25°C
Dew Point: 75°F, 24°C
Humidity: 94%
Barometer: 29.44 inHg, 997 hPa
Summary: Heavy rain
Visibility: 1 mile, 2 km
2024/07/08 10:35 KAXH 081035Z AUTO 09027G39KT 1SM +RA 25/24 A2944 RMK AO2 P0072 T02480240
KEFD - Houston/Ellingto, Texas, USA
Distance from station: SSE 37mi, 60km
Updated: 07/19/2024 2:54am
Few Clouds
Few Clouds
 Wind from S
Wind: S 3 mph, 6 km/h
Temperature: 79°F, 26°C
Dew Point: 73°F, 23°C
Humidity: 84%
Barometer: 29.98 inHg, 1015.2 hPa
Clouds: Few Clouds
Visibility: 10 miles, 16 km
Cloud details: Few Clouds 3500 ft
2024/07/19 07:54 KEFD 190754Z 19003KT 10SM FEW035 26/23 A2998
 
KLVJ - Houston, Texas, USA
Distance from station: SSE 40mi, 64km
Updated: 07/19/2024 2:53am
Clear
Clear
 Wind from calm
Wind: Calm
Temperature: 79°F, 26°C
Dew Point: 75°F, 24°C
Humidity: 89%
Barometer: 30.00 inHg, 1015.9 hPa
Clouds: Clear
Visibility: 10 miles, 16 km
2024/07/19 07:53 KLVJ 190753Z AUTO 00000KT 10SM CLR 26/24 A3000 RMK AO2 SLP159 T02560239 $
KUTS - Huntsville, Texas, USA
Distance from station: N 48mi, 78km
Updated: 07/18/2024 7:48am
NOT Current
Heavy rain, Mist, Overcast
Heavy rain, Mist, Overcast
 Wind from SW
Wind: SW 3 mph, 6 km/h
Temperature: 72°F, 22°C
Dew Point: 72°F, 22°C
Humidity: 100%
Barometer: 30.08 inHg, 1018.6 hPa
Summary: Heavy rain, Mist
Clouds: Overcast
Visibility: 3 miles, 5 km
Cloud details: Mostly cloudy 9000 ft
Overcast 11000 ft
2024/07/18 12:48 KUTS 181248Z AUTO 23003KT 3SM +RA BR BKN090 OVC110 22/22 A3008 RMK AO2 LTG DSNT W TSE18B24E26E42 P0018